Flight Track Log - Related Links

Times and Time Zones

All times are in EST time to prevent confusion due to time zone crossing. See the N57HC flight status page for this flight to view local times or setup timezone preferences in your user account.

Time Position Orientation Groundspeed Altitude Reporting Facility
EST Latitude Longitude Course Direction KTS MPH feet Rate Location/Type
Fri 02:36:16 PM 40.8833 -74.0500 346° North 186 214 1,700  Level New York TRACON
Fri 02:37:16 PM 40.9333 -74.0667 346° North 239 275 3,000 650 Climbing New York TRACON
Fri 02:38:16 PM 40.9167 -74.1500 255° West 260 299 3,000 1,450 Level New York TRACON
Fri 02:39:16 PM 40.8667 -74.2000 217° Southwest 240 276 5,900 1,458 Climbing New York TRACON
Fri 02:45:07 PM 40.5192 -74.4459 217° Southwest 12,800 1,287 Climbing FlightAware ADS-B
Fri 02:47:44 PM 40.3941 -74.2774 147° Southeast 302 348 16,800 1,224 Climbing FlightAware ADS-B
Fri 02:48:23 PM 40.3442 -74.2349 147° Southeast 338 389 16,800 54 Level FlightAware ADS-B
Fri 02:49:35 PM 40.2415 -74.1936 188° South 329 379 16,900 811 Climbing FlightAware ADS-B
Fri 02:50:14 PM 40.1854 -74.2067 191° South 296 341 18,300 1,714 Climbing FlightAware ADS-B
Fri 02:51:06 PM 40.1170 -74.2238 190° South 286 329 19,500 2,243 Climbing FlightAware ADS-B
Fri 02:52:01 PM 40.0460 -74.2403 190° South 286 329 22,300 2,152 Climbing FlightAware ADS-B
Fri 02:52:38 PM 40.0008 -74.2548 207° Southwest 273 314 22,800 1,725 Climbing FlightAware ADS-B
Fri 02:53:21 PM 39.9564 -74.2949 218° Southwest 273 314 24,600 1,886 Climbing FlightAware ADS-B
Fri 02:54:23 PM 39.8937 -74.3572 217° Southwest 279 321 26,100 1,787 Climbing FlightAware ADS-B
Fri 02:54:55 PM 39.8598 -74.3897 216° Southwest 280 322 27,400 2,000 Climbing FlightAware ADS-B
Fri 02:55:35 PM 39.8183 -74.4298 219° Southwest 280 322 28,500 1,792 Climbing FlightAware ADS-B
Fri 02:56:12 PM 39.7832 -74.4727 222° Southwest 278 320 29,700 1,543 Climbing FlightAware ADS-B
Fri 02:56:45 PM 39.7470 -74.5033 210° Southwest 284 327 30,300 1,273 Climbing FlightAware ADS-B
Fri 02:57:18 PM 39.7102 -74.5300 210° Southwest 278 320 31,100 1,781 Climbing FlightAware ADS-B (KWWD)
Fri 02:57:49 PM 39.6746 -74.5555 209° Southwest 281 323 32,200 2,164 Climbing FlightAware ADS-B (KWWD)
Fri 02:58:19 PM 39.6410 -74.5797 209° Southwest 274 315 33,300 2,164 Climbing FlightAware ADS-B (KWWD)
Fri 02:58:50 PM 39.6072 -74.6042 209° Southwest 261 300 34,400 1,543 Climbing FlightAware ADS-B (KWWD)
Fri 02:59:29 PM 39.5654 -74.6343 210° Southwest 258 297 35,100 1,200 Climbing FlightAware ADS-B (KWWD)
Fri 03:00:10 PM 39.5230 -74.6652 210° Southwest 258 297 36,000 1,050 Climbing FlightAware ADS-B (KWWD)
Fri 03:00:49 PM 39.4824 -74.6948 210° Southwest 262 302 36,500 857 Climbing FlightAware ADS-B (KWWD)
Fri 03:01:20 PM 39.4487 -74.7196 210° Southwest 264 304 37,000 873 Climbing FlightAware ADS-B (KWWD)
Fri 03:01:44 PM 39.4233 -74.7381 211° Southwest 259 298 37,300 706 Climbing FlightAware ADS-B (KWWD)
Fri 03:02:28 PM 39.3768 -74.7722 210° Southwest 261 300 37,800 789 Climbing FlightAware ADS-B (KWWD)
Fri 03:03:00 PM 39.3421 -74.7975 210° Southwest 263 303 38,300 898 Climbing FlightAware ADS-B (KWWD)
Fri 03:04:35 PM 39.2414 -74.8708 210° Southwest 259 298 39,700 976 Climbing FlightAware ADS-B
Fri 03:05:46 PM 39.2441 -74.8688 209° Southwest 253 291 41,000 661 Climbing FlightAware ADS-B (EGBO)
Fri 03:06:42 PM 39.1100 -74.9655 209° Southwest 256 295 41,100 300 Climbing FlightAware ADS-B (EGBO)
Fri 03:07:46 PM 39.0433 -75.0137 209° Southwest 262 302 41,600 529 Climbing FlightAware ADS-B (EGBO)
Fri 03:08:24 PM 39.0516 -75.0077 210° Southwest 256 295 42,000 621 Climbing FlightAware ADS-B (EGBO)
Fri 03:08:44 PM 39.0516 -75.0077 209° Southwest 262 302 42,200 635 Climbing FlightAware ADS-B (EGBO)
Fri 03:09:49 PM 38.9129 -75.1074 209° Southwest 262 302 42,900 300 Climbing FlightAware ADS-B (KWWD)
Fri 03:11:24 PM 38.8093 -75.1816 210° Southwest 276 318 43,000 40 Climbing FlightAware ADS-B (KWWD)
Fri 03:12:20 PM 38.7444 -75.2278 210° Southwest 284 327 43,000  Level FlightAware ADS-B (KWWD)
Fri 03:12:55 PM 38.7042 -75.2563 209° Southwest 294 338 43,000  Level FlightAware ADS-B (KWWD)
Fri 03:14:22 PM 38.5959 -75.3329 210° Southwest 294 338 43,000  Level FlightAware ADS-B (KWWD)
Fri 03:14:58 PM 38.5507 -75.3649 209° Southwest 316 364 43,000  Level FlightAware ADS-B (KWWD)
Fri 03:15:37 PM 38.5005 -75.4003 210° Southwest 314 361 43,000  Level FlightAware ADS-B (KWWD)
Fri 03:16:12 PM 38.4546 -75.4327 210° Southwest 318 366 43,000  Level FlightAware ADS-B (KWWD)
Fri 03:16:50 PM 38.4046 -75.4678 210° Southwest 320 368 43,000  Level FlightAware ADS-B (KWWD)
Fri 03:17:22 PM 38.3624 -75.4975 209° Southwest 328 377 43,000  Level FlightAware ADS-B (KWWD)
Fri 03:17:52 PM 38.3222 -75.5249 207° Southwest 329 379 43,000  Level FlightAware ADS-B (KWWD)
Fri 03:18:31 PM 38.2678 -75.5587 207° Southwest 323 372 43,000  Level FlightAware ADS-B (KWWD)
Fri 03:19:02 PM 38.2254 -75.5849 207° Southwest 325 374 43,000  Level FlightAware ADS-B (KWWD)
Fri 03:19:33 PM 38.1834 -75.6111 207° Southwest 325 374 43,000  Level FlightAware ADS-B (KWWD)
Fri 03:20:06 PM 38.1380 -75.6395 207° Southwest 325 374 43,000  Level FlightAware ADS-B (KWWD)
Fri 03:20:41 PM 38.0889 -75.6701 207° Southwest 326 375 43,000  Level FlightAware ADS-B (KWWD)
Fri 03:21:20 PM 38.0354 -75.7034 207° Southwest 326 375 43,000  Level FlightAware ADS-B (KWWD)
Fri 03:21:52 PM 37.9909 -75.7311 207° Southwest 326 375 43,000  Level FlightAware ADS-B (KWWD)
Fri 03:22:59 PM 37.8979 -75.7867 206° Southwest 327 376 43,000  Level FlightAware ADS-B (KWWD)
Fri 03:24:24 PM 37.7828 -75.8467 206° Southwest 336 387 43,000  Level Washington Center
Fri 03:25:22 PM 37.7078 -75.8911 205° Southwest 336 387 43,000  Level Washington Center
Fri 03:26:24 PM 37.6242 -75.9381 204° Southwest 336 387 43,000 541 Level Washington Center
Fri 03:27:24 PM 37.5406 -75.9769 200° South 336 387 44,100 800 Climbing Washington Center
Fri 03:28:24 PM 37.4653 -76.0156 202° Southwest 324 373 44,600 458 Climbing Washington Center
Fri 03:29:22 PM 37.3903 -76.0544 202° Southwest 307 353 45,000 203 Climbing Washington Center
Fri 03:30:22 PM 37.3169 -76.0933 203° Southwest 294 338 45,000  Level Washington Center
Fri 03:31:23 PM 37.2397 -76.1319 202° Southwest 294 338 45,000  Level Washington Center
Fri 03:32:24 PM 37.1497 -76.1731 200° South 305 351 45,000  Level Washington Center
Fri 03:33:22 PM 37.0725 -76.2142 203° Southwest 310 357 45,000  Level Washington Center
Fri 03:34:22 PM 36.9928 -76.2550 202° Southwest 315 362 45,000  Level Washington Center
Fri 03:35:23 PM 36.9133 -76.2958 202° Southwest 315 362 45,000  Level Washington Center
Fri 03:36:24 PM 36.8317 -76.3367 202° Southwest 315 362 45,000  Level Washington Center
Fri 03:37:22 PM 36.7503 -76.3775 202° Southwest 315 362 45,000  Level Washington Center
Fri 03:38:23 PM 36.6706 -76.4231 205° Southwest 315 362 45,000  Level Washington Center
Fri 03:39:24 PM 36.5889 -76.4636 202° Southwest 315 362 45,000  Level Washington Center
Fri 03:40:24 PM 36.5072 -76.5042 202° Southwest 315 362 45,000  Level Washington Center
Fri 03:41:22 PM 36.4236 -76.5419 200° South 315 362 45,000  Level Washington Center
Fri 03:42:22 PM 36.3378 -76.5769 198° South 315 362 45,000  Level Washington Center
Fri 03:43:23 PM 36.2519 -76.6094 197° South 320 368 45,000  Level Washington Center
Fri 03:44:24 PM 36.1681 -76.6417 197° South 320 368 45,000  Level Washington Center
Fri 03:45:22 PM 36.0822 -76.6767 198° South 328 377 45,000  Level Washington Center
Fri 03:46:23 PM 35.9964 -76.7114 198° South 323 372 45,000  Level Washington Center
Fri 03:47:23 PM 35.9086 -76.7433 196° South 323 372 45,000  Level Washington Center
Fri 03:48:24 PM 35.8247 -76.7756 197° South 328 377 45,000  Level Washington Center
Fri 03:49:24 PM 35.7389 -76.8100 198° South 323 372 45,000  Level Washington Center
Fri 03:50:25 PM 35.6531 -76.8447 198° South 328 377 45,000  Level Washington Center
Fri 03:51:22 PM 35.5817 -76.8717 197° South 311 358 45,000  Level Washington Center
Fri 03:52:24 PM 35.4936 -76.9058 198° South 316 364 45,000  Level Washington Center
Fri 03:53:24 PM 35.4097 -76.9403 199° South 316 364 45,000  Level Washington Center
Fri 03:54:22 PM 35.3239 -76.9719 197° South 322 371 45,000  Level Washington Center
Fri 03:55:22 PM 35.2400 -77.0061 198° South 322 371 45,000  Level Washington Center
Fri 03:56:23 PM 35.1561 -77.0375 197° South 327 376 45,000  Level Washington Center
Fri 03:57:23 PM 35.0725 -77.0692 197° South 327 376 45,000  Level Washington Center
Fri 03:58:24 PM 34.9886 -77.1056 200° South 322 371 45,000  Level Washington Center
Fri 03:59:24 PM 34.8919 -77.1392 196° South 328 377 45,000  Level Washington Center
Fri 04:00:24 PM 34.8186 -77.1708 200° South 322 371 45,000  Level Washington Center
Fri 04:01:22 PM 34.7347 -77.2019 197° South 322 371 45,000  Level Washington Center
Fri 04:02:23 PM 34.6467 -77.2356 197° South 322 371 45,000  Level Washington Center
Fri 04:03:23 PM 34.5608 -77.2667 197° South 329 379 45,000  Level Washington Center
Fri 04:04:24 PM 34.4725 -77.3000 197° South 329 379 45,000  Level Washington Center
Fri 04:05:23 PM 34.3886 -77.3336 198° South 324 373 45,000  Level Washington Center
Fri 04:06:23 PM 34.3006 -77.3669 197° South 324 373 45,000  Level Washington Center
Fri 04:07:24 PM 34.2167 -77.3953 196° South 324 373 45,000  Level Washington Center
Fri 04:08:31 PM 34.1106 -77.4353 197° South 319 367 45,000  Level Jacksonville Center
Fri 04:09:31 PM 34.0264 -77.4681 198° South 319 367 45,000  Level Jacksonville Center
Fri 04:10:31 PM 33.9442 -77.4981 197° South 319 367 45,000  Level Jacksonville Center
Fri 04:11:31 PM 33.8600 -77.5283 197° South 319 367 45,000  Level Jacksonville Center
Fri 04:12:31 PM 33.7761 -77.5633 199° South 319 367 45,000  Level Jacksonville Center
Fri 04:13:31 PM 33.6917 -77.5936 197° South 319 367 45,000  Level Jacksonville Center
Fri 04:14:31 PM 33.6075 -77.6236 197° South 319 367 45,000  Level Jacksonville Center
Fri 04:15:31 PM 33.5253 -77.6533 197° South 319 367 45,000  Level Jacksonville Center
Fri 04:16:31 PM 33.4411 -77.6858 198° South 319 367 45,000  Level Jacksonville Center
Fri 04:17:31 PM 33.3567 -77.7181 198° South 319 367 45,000 -150 Level Jacksonville Center
Fri 04:18:31 PM 33.2725 -77.7503 198° South 319 367 44,700 -400 Descending Jacksonville Center
Fri 04:19:31 PM 33.1883 -77.7797 196° South 319 367 44,200 -500 Descending Jacksonville Center
Fri 04:20:31 PM 33.0997 -77.8122 197° South 319 367 43,700 -600 Descending Jacksonville Center
Fri 04:21:31 PM 33.0092 -77.8444 197° South 324 373 43,000 -350 Descending Jacksonville Center
Fri 04:22:31 PM 32.9228 -77.8767 197° South 329 379 43,000  Level Jacksonville Center
Fri 04:23:31 PM 32.8344 -77.9086 197° South 334 384 43,000  Level Jacksonville Center
Fri 04:24:31 PM 32.7458 -77.9408 197° South 334 384 43,000  Level Jacksonville Center
Fri 04:25:31 PM 32.6597 -77.9750 198° South 334 384 43,000  Level Jacksonville Center
Fri 04:26:31 PM 32.5753 -78.0044 196° South 334 384 43,000  Level Jacksonville Center
Fri 04:27:31 PM 32.4864 -78.0314 194° South 334 384 43,000  Level Jacksonville Center
Fri 04:28:31 PM 32.4000 -78.0631 197° South 334 384 43,000  Level Jacksonville Center
Fri 04:29:31 PM 32.3178 -78.0944 198° South 329 379 43,000  Level Jacksonville Center
Fri 04:30:31 PM 32.2314 -78.1258 197° South 324 373 43,000  Level Jacksonville Center
Fri 04:31:31 PM 32.1492 -78.1597 199° South 319 367 43,000  Level Jacksonville Center
Fri 04:32:31 PM 32.0625 -78.1886 196° South 319 367 43,000  Level Jacksonville Center
Fri 04:33:31 PM 31.9781 -78.2175 196° South 319 367 43,000  Level Jacksonville Center
Fri 04:34:31 PM 31.9081 -78.2456 199° South 319 367 43,000  Level Jacksonville Center
Fri 04:35:31 PM 31.8133 -78.2794 197° South 324 373 43,000  Level Jacksonville Center
Fri 04:36:31 PM 31.7289 -78.3106 197° South 317 365 43,000  Level Jacksonville Center
Fri 04:37:31 PM 31.6422 -78.3442 198° South 322 371 43,000  Level Jacksonville Center
Fri 04:38:31 PM 31.5597 -78.3703 195° South 322 371 43,000  Level Jacksonville Center
Fri 04:39:31 PM 31.4753 -78.4011 197° South 322 371 43,000  Level Jacksonville Center
Fri 04:40:31 PM 31.3886 -78.4319 197° South 322 371 43,000  Level Jacksonville Center
Fri 04:41:31 PM 31.3042 -78.4603 196° South 317 365 43,000  Level Jacksonville Center
Fri 04:42:31 PM 31.2175 -78.4936 198° South 322 371 43,000  Level Jacksonville Center
Fri 04:43:31 PM 31.1311 -78.5242 197° South 322 371 43,000  Level Jacksonville Center
Fri 04:44:31 PM 31.0422 -78.5575 198° South 322 371 43,000  Level Jacksonville Center
Fri 04:45:31 PM 30.9578 -78.5831 195° South 322 371 43,000  Level Jacksonville Center
Fri 04:46:31 PM 30.8711 -78.6136 197° South 322 371 43,000  Level Jacksonville Center
Fri 04:49:26 PM 30.6081 -78.7061 197° South 326 375 43,000  Level Miami Center
Fri 04:50:26 PM 30.5222 -78.7383 198° South 331 381 43,000  Level Miami Center
Fri 04:51:26 PM 30.4344 -78.7681 196° South 326 375 43,000  Level Miami Center
Fri 04:52:26 PM 30.3444 -78.7975 196° South 332 382 43,000  Level Miami Center
Fri 04:53:26 PM 30.2503 -78.8175 190° South 338 389 43,000  Level Miami Center
Fri 04:54:26 PM 30.1583 -78.8375 191° South 351 404 43,000  Level Miami Center
Fri 04:55:26 PM 30.0578 -78.8594 191° South 344 396 43,000 -350 Level Miami Center
Fri 04:56:26 PM 29.9678 -78.8914 197° South 350 403 42,300 -1,150 Descending Miami Center
Fri 04:57:26 PM 29.8592 -78.9083 188° South 364 419 40,700 -1,550 Descending Miami Center
Fri 04:58:26 PM 29.7567 -78.9256 188° South 370 426 39,200 -1,438 Descending Miami Center
Fri 04:59:27 PM 29.6686 -78.9525 195° South 361 415 37,800 -1,400 Descending Miami Center
Fri 05:00:26 PM 29.5786 -78.9772 193° South 361 415 36,400 -1,261 Descending Miami Center
Fri 05:01:26 PM 29.4867 -78.9992 192° South 346 398 35,300 -1,300 Descending Miami Center
Fri 05:02:26 PM 29.3986 -79.0211 192° South 338 389 33,800 -1,500 Descending Miami Center
Fri 05:03:26 PM 29.3064 -79.0456 193° South 338 389 32,300 -1,500 Descending Miami Center
Fri 05:04:26 PM 29.2061 -79.0628 189° South 345 397 30,800 -1,350 Descending Miami Center
Fri 05:05:26 PM 29.1308 -79.0803 191° South 350 403 29,600 -1,450 Descending Miami Center
Fri 05:06:26 PM 29.0114 -79.1061 191° South 357 411 27,900 -1,500 Descending Miami Center
Fri 05:07:26 PM 28.9128 -79.1303 192° South 369 425 26,600 -1,450 Descending Miami Center
Fri 05:08:26 PM 28.8144 -79.1497 190° South 364 419 25,000 -1,300 Descending Miami Center
Fri 05:09:26 PM 28.7225 -79.1692 191° South 353 406 24,000 -500 Descending Miami Center
Fri 05:10:26 PM 28.6239 -79.1906 191° South 353 406 24,000  Level Miami Center
Fri 05:11:26 PM 28.5297 -79.2100 190° South 358 412 24,000  Level Miami Center
Fri 05:12:26 PM 28.4356 -79.2317 191° South 352 405 24,000  Level Miami Center
Fri 05:13:26 PM 28.3392 -79.2531 191° South 357 411 24,000  Level Miami Center
Fri 05:14:27 PM 28.2364 -79.2744 190° South 357 411 24,000 -603 Level Miami Center
Fri 05:19:54 PM 27.7455 -79.4252 215° Southwest 304 350 20,100 -791 Descending FlightAware ADS-B
Fri 05:20:31 PM 27.7031 -79.4576 214° Southwest 307 353 19,200 -1,481 Descending FlightAware ADS-B
Fri 05:21:15 PM 27.6518 -79.4963 214° Southwest 315 362 18,100 -1,583 Descending FlightAware ADS-B
Fri 05:22:55 PM 27.5300 -79.5874 214° Southwest 309 356 15,400 -1,455 Descending FlightAware ADS-B
Fri 05:23:27 PM 27.4975 -79.6172 214° Southwest 319 367 14,900 -1,319 Descending Miami Center
Fri 05:24:26 PM 27.4278 -79.6669 212° Southwest 308 354 13,400 -1,513 Descending Miami Center
Fri 05:25:26 PM 27.3642 -79.7144 214° Southwest 310 357 11,900 -1,500 Descending Miami Center
Fri 05:26:26 PM 27.2961 -79.7667 214° Southwest 310 357 10,400 -1,600 Descending Miami Center
Fri 05:27:26 PM 27.2242 -79.8161 211° Southwest 299 344 8,700 -1,200 Descending Miami Center
Fri 05:28:26 PM 27.1606 -79.8658 215° Southwest 289 333 8,000 -400 Descending Miami Center
Fri 05:29:26 PM 27.0931 -79.9014 205° Southwest 278 320 7,900 -850 Descending Miami Center
Fri 05:30:26 PM 27.0242 -79.8950 175° South 266 306 6,300 -1,550 Descending Miami Center
Fri 05:31:26 PM 26.9450 -79.8931 179° South 289 333 4,800 -1,150 Descending Miami Center
Fri 05:32:26 PM 26.8636 -79.8908 179° South 277 319 4,000 -850 Descending Miami Center
Fri 05:33:26 PM 26.8092 -79.8964 185° South 265 305 3,100 -900 Descending Miami Center
Fri 05:35:00 PM 26.7320 -80.0185 265° West  Level Estimated
Fri 05:42:00 PM 26.6832 -80.0956 110° East  Level Estimated
Fri 05:43:00 PM 26.6832 -80.0956 110° East  Level Estimated
Fri 05:44:00 PM 26.6832 -80.0956 110° East  Level Estimated
Fri 05:45:00 PM 26.6832 -80.0956 110° East  Level Estimated
Fri 05:46:00 PM 26.6832 -80.0956 110° East  Level Estimated
Fri 05:47:00 PM 26.6832 -80.0956 110° East  Level Estimated

Login

Don't have an account? Register now (free) for customized features, flight alerts, and more!